Terminal Aerodrome Forecast
Issued by NWS Wilmington, OH

Current Version | Previous Version | Text Only | Print | Product List | Glossary Off
Versions: 1 2 3 4 5 6 7 8 9 10 11 12 13 14 15 16 17 18 19 20 21 22 23 24 25 26 27

000
FTUS41 KILN 190200 AAA
TAFCVG
TAF AMD
KCVG 190218Z 1902/2006 33008KT P6SM OVC025
      TEMPO 1902/1905 BKN015
     FM190900 34005KT P6SM SCT025
     FM191500 VRB03KT P6SM FEW040
     FM192200 22004KT P6SM BKN200=

USA.gov is the U.S. government's official web portal to all federal, state and local government web resources and services.